createdAt,value
2023-05-05T00:01:26.832Z,100909.41
2023-05-05T00:03:53.823Z,100914.31
2023-05-05T00:06:20.684Z,100920.44
2023-05-05T00:08:47.503Z,100914.59
2023-05-05T00:11:14.251Z,100913.78
2023-05-05T00:13:41.008Z,100908.88
2023-05-05T00:16:07.957Z,100905.84
2023-05-05T00:18:34.889Z,100904.56
2023-05-05T00:21:01.649Z,100902.50
2023-05-05T00:23:28.446Z,100889.13
2023-05-05T00:25:55.177Z,100907.16
2023-05-05T00:28:22.147Z,100898.47
2023-05-05T00:30:49.032Z,100893.88
2023-05-05T00:33:16.078Z,100894.84
2023-05-05T00:35:42.896Z,100899.88
2023-05-05T00:38:09.647Z,100897.22
2023-05-05T00:40:37.916Z,100875.06
2023-05-05T00:43:05.283Z,100897.25
2023-05-05T00:45:32.147Z,100895.03
2023-05-05T00:48:00.468Z,100892.59
2023-05-05T00:50:30.745Z,100894.03
2023-05-05T00:53:04.058Z,100904.53
2023-05-05T00:55:31.744Z,100900.34
2023-05-05T00:57:59.683Z,100901.47
2023-05-05T01:00:27.575Z,100895.03
2023-05-05T01:02:55.665Z,100895.28
2023-05-05T01:05:24.245Z,100891.13
2023-05-05T01:08:13.130Z,100898.25
2023-05-05T01:10:53.211Z,100896.03
2023-05-05T01:13:32.565Z,100894.94
2023-05-05T01:16:17.540Z,100899.66
2023-05-05T01:18:53.572Z,100877.78
2023-05-05T01:21:23.770Z,100898.88
2023-05-05T01:24:05.539Z,100897.47
2023-05-05T01:27:03.162Z,100882.53
2023-05-05T01:30:08.864Z,100888.41
2023-05-05T01:32:44.078Z,100887.84
2023-05-05T01:35:20.869Z,100887.84
2023-05-05T01:37:57.786Z,100890.63
2023-05-05T01:40:33.098Z,100890.66
2023-05-05T01:43:01.891Z,100886.16
2023-05-05T01:45:32.345Z,100873.63
2023-05-05T01:48:00.990Z,100885.63
2023-05-05T01:50:29.102Z,100893.59
2023-05-05T01:52:57.858Z,100889.81
2023-05-05T01:55:27.690Z,100895.38
2023-05-05T01:57:56.246Z,100899.19
2023-05-05T02:00:25.324Z,100896.09
2023-05-05T02:02:56.158Z,100895.25
2023-05-05T02:05:24.983Z,100888.44
2023-05-05T02:07:57.048Z,100894.13
2023-05-05T02:10:24.466Z,100888.97
2023-05-05T02:12:53.272Z,100888.81
2023-05-05T02:15:22.811Z,100886.88
2023-05-05T02:17:54.498Z,100882.13
2023-05-05T02:20:23.072Z,100882.97
2023-05-05T02:22:49.969Z,100873.19
2023-05-05T02:25:19.632Z,100882.13
2023-05-05T02:27:48.740Z,100879.63
2023-05-05T02:30:19.472Z,100876.44
2023-05-05T02:32:54.726Z,100882.69
2023-05-05T02:35:26.275Z,100885.19
2023-05-05T02:38:04.862Z,100874.03
2023-05-05T02:40:39.280Z,100870.25
2023-05-05T02:43:09.322Z,100876.41
2023-05-05T02:45:36.172Z,100874.72
2023-05-05T02:48:04.449Z,100873.19
2023-05-05T02:50:34.617Z,100864.97
2023-05-05T02:53:13.962Z,100873.63
2023-05-05T02:55:49.102Z,100856.63
2023-05-05T02:58:29.191Z,100864.72
2023-05-05T03:01:07.362Z,100869.44
2023-05-05T03:03:37.329Z,100872.22
2023-05-05T03:06:18.071Z,100862.06
2023-05-05T03:09:07.964Z,100869.28
2023-05-05T03:11:42.477Z,100855.75
2023-05-05T03:14:13.288Z,100846.69
2023-05-05T03:16:42.719Z,100864.97
2023-05-05T03:19:12.313Z,100861.91
2023-05-05T03:21:42.389Z,100868.31
2023-05-05T03:24:19.509Z,100859.25
2023-05-05T03:26:57.825Z,100875.72
2023-05-05T03:29:31.443Z,100874.75
2023-05-05T03:31:59.173Z,100861.19
2023-05-05T03:34:26.149Z,100878.78
2023-05-05T03:36:53.060Z,100883.25
2023-05-05T03:39:20.082Z,100877.25
2023-05-05T03:41:48.852Z,100878.22
2023-05-05T03:44:16.801Z,100876.44
2023-05-05T03:46:43.643Z,100882.69
2023-05-05T03:49:13.437Z,100876.00
2023-05-05T03:51:41.964Z,100885.78
2023-05-05T03:54:08.988Z,100866.34
2023-05-05T03:56:36.619Z,100876.56
2023-05-05T03:59:03.426Z,100880.72
2023-05-05T04:01:31.489Z,100871.38
2023-05-05T04:04:00.070Z,100876.28
2023-05-05T04:06:27.617Z,100880.19
2023-05-05T04:08:54.398Z,100878.22
2023-05-05T04:11:22.035Z,100874.03
2023-05-05T04:13:50.113Z,100876.28
2023-05-05T04:16:18.391Z,100880.84
2023-05-05T04:18:45.237Z,100865.78
2023-05-05T04:21:12.043Z,100865.50
2023-05-05T04:23:39.905Z,100881.38
2023-05-05T04:26:07.265Z,100883.44
2023-05-05T04:28:34.464Z,100882.91
2023-05-05T04:31:02.638Z,100887.78
2023-05-05T04:33:31.283Z,100883.03
2023-05-05T04:35:58.427Z,100877.81
2023-05-05T04:38:25.391Z,100877.66
2023-05-05T04:40:53.075Z,100876.47
2023-05-05T04:43:20.224Z,100882.56
2023-05-05T04:45:54.540Z,100871.91
2023-05-05T04:48:23.970Z,100871.38
2023-05-05T04:50:51.829Z,100845.97
2023-05-05T04:53:19.104Z,100886.91
2023-05-05T04:55:45.873Z,100884.69
2023-05-05T04:58:12.744Z,100887.81
2023-05-05T05:00:39.588Z,100889.94
2023-05-05T05:03:08.237Z,100890.22
2023-05-05T05:05:35.149Z,100893.69
2023-05-05T05:08:02.135Z,100894.34
2023-05-05T05:10:29.373Z,100891.47
2023-05-05T05:12:56.189Z,100890.53
2023-05-05T05:15:23.011Z,100888.16
2023-05-05T05:17:49.811Z,100887.53
2023-05-05T05:20:16.687Z,100896.38
2023-05-05T05:22:43.524Z,100891.41
2023-05-05T05:25:14.939Z,100894.25
2023-05-05T05:27:42.326Z,100899.28
2023-05-05T05:30:10.975Z,100894.97
2023-05-05T05:32:37.763Z,100895.16
2023-05-05T05:35:05.507Z,100896.16
2023-05-05T05:37:34.519Z,100888.16
2023-05-05T05:40:01.976Z,100898.66
2023-05-05T05:42:31.430Z,100896.50
2023-05-05T05:44:58.802Z,100891.00
2023-05-05T05:47:26.241Z,100898.69
2023-05-05T05:49:53.026Z,100895.66
2023-05-05T05:52:20.537Z,100891.34
2023-05-05T05:54:47.283Z,100900.88
2023-05-05T05:57:13.998Z,100900.69
2023-05-05T05:59:40.825Z,100895.03
2023-05-05T06:02:09.650Z,100897.00
2023-05-05T06:04:36.731Z,100899.34
2023-05-05T06:07:03.577Z,100897.84
2023-05-05T06:09:30.405Z,100908.88
2023-05-05T06:11:57.164Z,100909.56
2023-05-05T06:14:23.997Z,100915.19
2023-05-05T06:16:52.325Z,100900.22
2023-05-05T06:19:21.620Z,100910.22
2023-05-05T06:21:48.884Z,100911.56
2023-05-05T06:24:15.599Z,100912.53
2023-05-05T06:26:42.453Z,100917.72
2023-05-05T06:29:11.775Z,100914.06
2023-05-05T06:31:38.913Z,100910.22
2023-05-05T06:34:05.857Z,100912.03
2023-05-05T06:36:32.627Z,100909.53
2023-05-05T06:38:59.537Z,100907.03
2023-05-05T06:41:26.475Z,100910.19
2023-05-05T06:43:53.134Z,100914.69
2023-05-05T06:46:19.942Z,100909.84
2023-05-05T06:48:46.720Z,100914.84
2023-05-05T06:51:13.417Z,100913.66
2023-05-05T06:53:40.294Z,100908.31
2023-05-05T06:56:07.249Z,100918.97
2023-05-05T06:58:34.030Z,100914.63
2023-05-05T07:01:01.121Z,100908.47
2023-05-05T07:03:28.402Z,100919.78
2023-05-05T07:05:55.520Z,100919.09
2023-05-05T07:08:22.197Z,100897.38
2023-05-05T07:10:49.026Z,100917.34
2023-05-05T07:13:16.795Z,100923.19
2023-05-05T07:15:46.417Z,100919.66
2023-05-05T07:18:17.043Z,100925.00
2023-05-05T07:20:44.617Z,100916.59
2023-05-05T07:23:11.409Z,100915.41
2023-05-05T07:25:38.629Z,100916.84
2023-05-05T07:28:05.883Z,100908.13
2023-05-05T07:30:32.665Z,100917.31
2023-05-05T07:32:59.397Z,100904.41
2023-05-05T07:35:26.433Z,100901.84
2023-05-05T07:37:53.545Z,100894.91
2023-05-05T07:40:20.677Z,100897.34
2023-05-05T07:42:47.585Z,100901.78
2023-05-05T07:45:14.399Z,100902.16
2023-05-05T07:47:41.194Z,100899.31
2023-05-05T07:50:08.850Z,100891.41
2023-05-05T07:52:46.578Z,100897.56
2023-05-05T07:55:16.762Z,100901.91
2023-05-05T07:57:43.609Z,100903.69
2023-05-05T08:00:11.418Z,100900.13
2023-05-05T08:02:41.463Z,100900.94
2023-05-05T08:05:08.851Z,100897.56
2023-05-05T08:07:38.266Z,100897.56
2023-05-05T08:10:05.479Z,100903.03
2023-05-05T08:12:32.242Z,100895.09
2023-05-05T08:14:58.963Z,100898.78
2023-05-05T08:17:27.139Z,100881.16
2023-05-05T08:19:54.012Z,100899.91
2023-05-05T08:22:21.815Z,100900.09
2023-05-05T08:24:48.565Z,100897.25
2023-05-05T08:27:15.462Z,100895.78
2023-05-05T08:29:42.131Z,100889.94
2023-05-05T08:32:08.868Z,100895.03
2023-05-05T08:34:35.608Z,100898.00
2023-05-05T08:37:02.342Z,100890.22
2023-05-05T08:39:29.409Z,100895.13
2023-05-05T08:41:56.176Z,100892.06
2023-05-05T08:44:23.154Z,100895.28
2023-05-05T08:46:50.520Z,100893.22
2023-05-05T08:49:18.949Z,100888.22
2023-05-05T08:51:46.707Z,100894.69
2023-05-05T08:54:23.218Z,100883.97
2023-05-05T08:56:51.578Z,100883.69
2023-05-05T08:59:21.910Z,100885.25
2023-05-05T09:01:48.952Z,100867.88
2023-05-05T09:04:16.266Z,100882.91
2023-05-05T09:06:43.071Z,100875.91
2023-05-05T09:09:09.968Z,100878.81
2023-05-05T09:11:38.424Z,100879.28
2023-05-05T09:14:05.124Z,100878.38
2023-05-05T09:16:31.913Z,100869.13
2023-05-05T09:19:04.464Z,100865.56
2023-05-05T09:21:32.409Z,100871.16
2023-05-05T09:24:09.616Z,100868.78
2023-05-05T09:26:44.716Z,100869.88
2023-05-05T09:29:18.925Z,100867.66
2023-05-05T09:32:05.450Z,100860.53
2023-05-05T09:34:35.068Z,100857.84
2023-05-05T09:37:01.887Z,100854.44
2023-05-05T09:39:28.831Z,100861.91
2023-05-05T09:41:55.732Z,100856.44
2023-05-05T09:44:42.119Z,100856.22
2023-05-05T09:47:22.153Z,100856.31
2023-05-05T09:50:01.417Z,100852.84
2023-05-05T09:52:28.680Z,100857.59
2023-05-05T09:54:56.783Z,100849.84
2023-05-05T09:57:31.831Z,100842.69
2023-05-05T10:00:00.401Z,100843.97
2023-05-05T10:02:36.056Z,100844.88
2023-05-05T10:05:13.563Z,100848.19
2023-05-05T10:07:43.010Z,100844.00
2023-05-05T10:10:14.092Z,100836.22
2023-05-05T10:12:41.260Z,100832.38
2023-05-05T10:15:10.709Z,100838.63
2023-05-05T10:17:57.930Z,100834.72
2023-05-05T10:20:33.480Z,100832.84
2023-05-05T10:23:05.595Z,100820.06
2023-05-05T10:25:39.213Z,100826.50
2023-05-05T10:28:09.782Z,100819.41
2023-05-05T10:30:43.088Z,100816.16
2023-05-05T10:33:30.764Z,100818.06
2023-05-05T10:36:01.697Z,100817.06
2023-05-05T10:38:31.171Z,100799.91
2023-05-05T10:40:59.900Z,100815.28
2023-05-05T10:43:28.257Z,100811.78
2023-05-05T10:45:55.790Z,100812.25
2023-05-05T10:48:33.023Z,100801.28
2023-05-05T10:51:10.599Z,100777.72
2023-05-05T10:53:49.270Z,100793.53
2023-05-05T10:56:40.384Z,100787.31
2023-05-05T10:59:38.471Z,100781.75
2023-05-05T11:02:38.389Z,100777.22
2023-05-05T11:05:21.633Z,100752.38
2023-05-05T11:07:50.549Z,100773.72
2023-05-05T11:10:20.788Z,100773.31
2023-05-05T11:12:59.351Z,100767.13
2023-05-05T11:15:33.644Z,100761.34
2023-05-05T11:18:05.838Z,100763.59
2023-05-05T11:20:37.673Z,100771.25
2023-05-05T11:23:04.819Z,100758.00
2023-05-05T11:25:34.880Z,100758.66
2023-05-05T11:28:08.634Z,100758.63
2023-05-05T11:30:56.385Z,100754.88
2023-05-05T11:33:36.895Z,100763.38
2023-05-05T11:36:06.689Z,100750.50
2023-05-05T11:38:46.171Z,100750.28
2023-05-05T11:41:48.538Z,100747.16
2023-05-05T11:44:17.124Z,100734.50
2023-05-05T11:46:52.826Z,100743.19
2023-05-05T11:49:30.451Z,100737.75
2023-05-05T11:51:58.663Z,100739.41
2023-05-05T11:54:26.263Z,100747.88
2023-05-05T11:56:55.684Z,100743.25
2023-05-05T11:59:22.882Z,100738.47
2023-05-05T12:01:49.665Z,100730.78
2023-05-05T12:04:17.203Z,100734.94
2023-05-05T12:06:45.454Z,100725.41
2023-05-05T12:09:22.741Z,100728.09
2023-05-05T12:11:58.062Z,100725.63
2023-05-05T12:14:25.758Z,100726.00
2023-05-05T12:16:56.635Z,100731.03
2023-05-05T12:19:24.467Z,100726.88
2023-05-05T12:21:54.286Z,100729.66
2023-05-05T12:24:21.242Z,100725.84
2023-05-05T12:26:48.004Z,100719.59
2023-05-05T12:29:25.007Z,100714.03
2023-05-05T12:31:51.997Z,100702.28
2023-05-05T12:34:19.174Z,100718.69
2023-05-05T12:36:46.373Z,100707.91
2023-05-05T12:39:13.308Z,100712.06
2023-05-05T12:41:40.308Z,100712.28
2023-05-05T12:44:07.174Z,100715.44
2023-05-05T12:46:47.179Z,100703.22
2023-05-05T12:49:14.708Z,100704.28
2023-05-05T12:51:54.102Z,100700.53
2023-05-05T12:54:21.191Z,100702.84
2023-05-05T12:56:48.220Z,100697.66
2023-05-05T12:59:21.940Z,100680.66
2023-05-05T13:01:50.491Z,100682.34
2023-05-05T13:04:18.681Z,100690.81
2023-05-05T13:06:47.530Z,100679.22
2023-05-05T13:09:35.954Z,100671.72
2023-05-05T13:12:04.479Z,100669.81
2023-05-05T13:14:35.302Z,100665.97
2023-05-05T13:17:02.095Z,100666.78
2023-05-05T13:19:29.314Z,100676.34
2023-05-05T13:21:56.978Z,100661.38
2023-05-05T13:24:34.431Z,100657.28
2023-05-05T13:27:09.570Z,100653.19
2023-05-05T13:29:36.488Z,100657.72
2023-05-05T13:32:03.301Z,100647.78
2023-05-05T13:34:30.115Z,100646.94
2023-05-05T13:36:56.939Z,100643.22
2023-05-05T13:39:23.648Z,100643.88
2023-05-05T13:41:50.586Z,100640.97
2023-05-05T13:44:17.613Z,100635.81
2023-05-05T13:46:44.713Z,100630.19
2023-05-05T13:49:11.719Z,100630.84
2023-05-05T13:51:38.986Z,100631.06
2023-05-05T13:54:06.884Z,100615.28
2023-05-05T13:56:34.702Z,100627.97
2023-05-05T13:59:02.475Z,100620.88
2023-05-05T14:01:29.820Z,100629.84
2023-05-05T14:03:57.640Z,100617.63
2023-05-05T14:06:24.721Z,100629.88
2023-05-05T14:08:51.735Z,100624.69
2023-05-05T14:11:18.458Z,100627.16
2023-05-05T14:13:46.531Z,100618.84
2023-05-05T14:16:13.575Z,100614.69
2023-05-05T14:18:40.688Z,100619.69
2023-05-05T14:21:07.604Z,100616.16
2023-05-05T14:23:34.354Z,100609.91
2023-05-05T14:26:01.516Z,100608.47
2023-05-05T14:28:28.212Z,100611.81
2023-05-05T14:30:54.984Z,100610.22
2023-05-05T14:33:22.285Z,100607.09
2023-05-05T14:35:49.295Z,100594.88
2023-05-05T14:38:16.204Z,100593.84
2023-05-05T14:40:42.944Z,100598.16
2023-05-05T14:43:09.677Z,100600.25
2023-05-05T14:45:36.520Z,100600.47
2023-05-05T14:48:03.329Z,100597.34
2023-05-05T14:50:30.090Z,100589.13
2023-05-05T14:52:56.847Z,100603.63
2023-05-05T14:55:24.981Z,100594.94
2023-05-05T14:57:54.293Z,100572.97
2023-05-05T15:00:21.200Z,100591.03
2023-05-05T15:02:48.397Z,100595.34
2023-05-05T15:05:15.366Z,100597.44
2023-05-05T15:07:42.166Z,100606.09
2023-05-05T15:10:09.333Z,100588.09
2023-05-05T15:12:36.419Z,100595.53
2023-05-05T15:15:03.428Z,100596.19
2023-05-05T15:17:31.777Z,100585.66
2023-05-05T15:19:58.552Z,100586.88
2023-05-05T15:22:25.302Z,100592.47
2023-05-05T15:24:52.013Z,100594.31
2023-05-05T15:27:18.784Z,100587.91
2023-05-05T15:29:45.495Z,100597.22
2023-05-05T15:32:12.598Z,100592.69
2023-05-05T15:34:39.370Z,100580.50
2023-05-05T15:37:06.175Z,100584.22
2023-05-05T15:39:32.909Z,100584.84
2023-05-05T15:42:03.709Z,100584.41
2023-05-05T15:44:31.429Z,100581.50
2023-05-05T15:46:58.181Z,100580.25
2023-05-05T15:49:24.998Z,100576.31
2023-05-05T15:51:51.684Z,100573.41
2023-05-05T15:54:18.438Z,100576.13
2023-05-05T15:56:45.193Z,100579.00
2023-05-05T15:59:11.943Z,100567.03
2023-05-05T16:01:38.819Z,100565.78
2023-05-05T16:04:05.763Z,100568.28
2023-05-05T16:06:32.552Z,100567.03
2023-05-05T16:08:59.306Z,100559.59
2023-05-05T16:11:26.622Z,100555.22
2023-05-05T16:13:53.885Z,100559.16
2023-05-05T16:16:20.921Z,100556.47
2023-05-05T16:18:47.994Z,100551.50
2023-05-05T16:21:15.102Z,100550.88
2023-05-05T16:23:41.941Z,100556.28
2023-05-05T16:26:08.757Z,100548.84
2023-05-05T16:28:35.601Z,100554.44
2023-05-05T16:31:02.453Z,100545.34
2023-05-05T16:33:29.671Z,100543.25
2023-05-05T16:35:56.612Z,100547.84
2023-05-05T16:38:23.323Z,100548.25
2023-05-05T16:40:50.489Z,100553.22
2023-05-05T16:43:17.271Z,100551.38
2023-05-05T16:45:43.986Z,100548.88
2023-05-05T16:48:10.880Z,100541.63
2023-05-05T16:50:37.523Z,100548.50
2023-05-05T16:53:04.285Z,100547.69
2023-05-05T16:55:32.352Z,100548.72
2023-05-05T16:57:59.005Z,100547.09
2023-05-05T17:00:25.748Z,100545.00
2023-05-05T17:02:52.509Z,100547.09
2023-05-05T17:05:19.330Z,100552.84
2023-05-05T17:07:48.252Z,100541.91
2023-05-05T17:10:15.202Z,100562.38
2023-05-05T17:12:42.055Z,100557.84
2023-05-05T17:15:09.532Z,100552.03
2023-05-05T17:17:36.510Z,100554.94
2023-05-05T17:20:04.869Z,100558.25
2023-05-05T17:22:32.086Z,100551.81
2023-05-05T17:24:58.920Z,100553.47
2023-05-05T17:27:25.597Z,100555.75
2023-05-05T17:29:52.362Z,100551.41
2023-05-05T17:32:19.120Z,100534.25
2023-05-05T17:34:46.131Z,100549.94
2023-05-05T17:37:15.796Z,100549.13
2023-05-05T17:39:42.580Z,100550.38
2023-05-05T17:42:09.298Z,100558.00
2023-05-05T17:44:35.989Z,100547.69
2023-05-05T17:47:04.018Z,100552.22
2023-05-05T17:49:30.874Z,100557.59
2023-05-05T17:51:57.573Z,100550.78
2023-05-05T17:54:24.261Z,100558.19
2023-05-05T17:56:51.514Z,100556.53
2023-05-05T17:59:18.325Z,100560.66
2023-05-05T18:01:45.561Z,100554.28
2023-05-05T18:04:12.269Z,100562.13
2023-05-05T18:06:38.966Z,100563.97
2023-05-05T18:09:05.670Z,100561.88
2023-05-05T18:11:32.393Z,100555.66
2023-05-05T18:13:59.197Z,100570.13
2023-05-05T18:16:25.950Z,100560.19
2023-05-05T18:18:52.781Z,100558.91
2023-05-05T18:21:19.522Z,100561.34
2023-05-05T18:23:46.315Z,100567.53
2023-05-05T18:26:13.063Z,100560.44
2023-05-05T18:28:39.740Z,100565.41
2023-05-05T18:31:06.549Z,100569.09
2023-05-05T18:33:33.311Z,100559.97
2023-05-05T18:36:00.033Z,100571.94
2023-05-05T18:38:26.846Z,100577.53
2023-05-05T18:40:53.665Z,100576.25
2023-05-05T18:43:20.409Z,100574.78
2023-05-05T18:45:47.161Z,100571.44
2023-05-05T18:48:13.848Z,100579.66
2023-05-05T18:50:40.561Z,100584.16
2023-05-05T18:53:07.253Z,100582.84
2023-05-05T18:55:34.043Z,100585.06
2023-05-05T18:58:00.758Z,100578.56
2023-05-05T19:00:27.471Z,100589.69
2023-05-05T19:02:54.476Z,100583.44
2023-05-05T19:05:21.404Z,100582.53
2023-05-05T19:07:48.079Z,100590.53
2023-05-05T19:10:15.051Z,100592.25
2023-05-05T19:12:41.756Z,100590.56
2023-05-05T19:15:09.119Z,100586.53
2023-05-05T19:17:36.414Z,100592.91
2023-05-05T19:20:03.363Z,100585.16
2023-05-05T19:22:30.115Z,100598.56
2023-05-05T19:24:56.817Z,100586.53
2023-05-05T19:27:23.497Z,100591.03
2023-05-05T19:29:52.475Z,100590.97
2023-05-05T19:32:21.019Z,100596.69
2023-05-05T19:34:48.068Z,100602.81
2023-05-05T19:37:14.860Z,100602.53
2023-05-05T19:39:44.327Z,100604.13
2023-05-05T19:42:11.556Z,100604.69
2023-05-05T19:44:38.327Z,100601.72
2023-05-05T19:47:05.219Z,100599.44
2023-05-05T19:49:32.002Z,100595.47
2023-05-05T19:51:59.017Z,100591.50
2023-05-05T19:54:28.005Z,100601.72
2023-05-05T19:56:57.352Z,100600.63
2023-05-05T19:59:24.074Z,100597.88
2023-05-05T20:01:50.993Z,100590.53
2023-05-05T20:04:17.782Z,100582.41
2023-05-05T20:06:44.491Z,100588.72
2023-05-05T20:09:11.197Z,100590.91
2023-05-05T20:11:38.285Z,100584.94
2023-05-05T20:14:05.075Z,100594.97
2023-05-05T20:16:31.993Z,100600.03
2023-05-05T20:18:58.863Z,100592.38
2023-05-05T20:21:25.681Z,100593.75
2023-05-05T20:23:54.482Z,100593.66
2023-05-05T20:26:22.112Z,100581.56
2023-05-05T20:28:48.844Z,100597.78
2023-05-05T20:31:15.714Z,100596.66
2023-05-05T20:33:42.742Z,100585.84
2023-05-05T20:36:10.512Z,100589.53
2023-05-05T20:38:37.214Z,100591.56
2023-05-05T20:41:03.996Z,100583.63
2023-05-05T20:43:30.722Z,100584.31
2023-05-05T20:45:57.366Z,100581.69
2023-05-05T20:48:24.054Z,100584.91
2023-05-05T20:50:51.342Z,100576.59
2023-05-05T20:53:19.212Z,100572.63
2023-05-05T20:55:46.110Z,100566.34
2023-05-05T20:58:12.849Z,100576.84
2023-05-05T21:00:39.764Z,100571.03
2023-05-05T21:03:06.603Z,100559.41
2023-05-05T21:05:33.336Z,100571.03
2023-05-05T21:08:01.190Z,100571.84
2023-05-05T21:10:33.102Z,100568.63
2023-05-05T21:13:01.795Z,100573.28
2023-05-05T21:15:28.665Z,100566.75
2023-05-05T21:17:57.182Z,100563.53
2023-05-05T21:20:24.093Z,100557.84
2023-05-05T21:22:50.885Z,100560.19
2023-05-05T21:25:19.911Z,100552.16
2023-05-05T21:27:48.226Z,100559.94
2023-05-05T21:30:16.025Z,100557.91
2023-05-05T21:32:43.280Z,100560.19
2023-05-05T21:35:10.470Z,100558.38
2023-05-05T21:37:39.203Z,100559.84
2023-05-05T21:40:09.453Z,100561.06
2023-05-05T21:42:36.485Z,100561.38
2023-05-05T21:45:03.506Z,100556.72
2023-05-05T21:47:30.236Z,100554.41
2023-05-05T21:49:58.095Z,100561.06
2023-05-05T21:52:24.930Z,100554.84
2023-05-05T21:54:51.637Z,100559.00
2023-05-05T21:57:18.718Z,100557.34
2023-05-05T21:59:45.685Z,100560.38
2023-05-05T22:02:12.492Z,100566.09
2023-05-05T22:04:39.170Z,100555.16
2023-05-05T22:07:05.907Z,100557.56
2023-05-05T22:09:32.636Z,100569.06
2023-05-05T22:11:59.418Z,100564.47
2023-05-05T22:14:26.170Z,100575.78
2023-05-05T22:16:52.918Z,100566.94
2023-05-05T22:19:19.654Z,100571.91
2023-05-05T22:21:46.334Z,100558.56
2023-05-05T22:24:13.094Z,100572.03
2023-05-05T22:26:43.270Z,100568.34
2023-05-05T22:29:11.147Z,100557.75
2023-05-05T22:31:38.184Z,100566.59
2023-05-05T22:34:05.006Z,100566.22
2023-05-05T22:36:31.812Z,100555.91
2023-05-05T22:38:58.815Z,100555.53
2023-05-05T22:41:25.777Z,100559.88
2023-05-05T22:43:52.639Z,100562.91
2023-05-05T22:46:19.368Z,100558.38
2023-05-05T22:48:46.659Z,100560.56
2023-05-05T22:51:13.477Z,100569.25
2023-05-05T22:53:40.423Z,100568.31
2023-05-05T22:56:07.458Z,100565.69
2023-05-05T22:58:34.135Z,100578.16
2023-05-05T23:01:00.939Z,100575.22
2023-05-05T23:03:27.667Z,100578.88
2023-05-05T23:05:54.435Z,100561.06
2023-05-05T23:08:21.538Z,100578.63
2023-05-05T23:10:48.224Z,100572.56
2023-05-05T23:13:14.998Z,100561.13
2023-05-05T23:15:41.718Z,100571.13
2023-05-05T23:18:08.680Z,100560.97
2023-05-05T23:20:35.486Z,100573.25
2023-05-05T23:23:02.256Z,100568.75
2023-05-05T23:25:28.938Z,100553.03
2023-05-05T23:27:55.629Z,100563.72
2023-05-05T23:30:22.404Z,100560.78
2023-05-05T23:32:49.203Z,100565.19
2023-05-05T23:35:16.042Z,100560.81
2023-05-05T23:37:42.784Z,100558.94
2023-05-05T23:40:09.930Z,100559.16
2023-05-05T23:42:36.645Z,100556.91
2023-05-05T23:45:03.915Z,100560.28
2023-05-05T23:47:30.813Z,100547.53
2023-05-05T23:49:57.560Z,100553.72
2023-05-05T23:52:24.277Z,100547.97
2023-05-05T23:54:51.074Z,100557.00
2023-05-05T23:57:17.805Z,100546.53
2023-05-05T23:59:44.777Z,100546.38
